sensor_id;sensor_type;location;lat;lon;timestamp;pressure;altitude;pressure_sealevel;temperature;humidity
45731;BME280;31440;48.584;13.460;2023-05-20T00:00:22;96959.97;;;13.88;100.00
45731;BME280;31440;48.584;13.460;2023-05-20T00:03:26;96960.78;;;13.51;100.00
45731;BME280;31440;48.584;13.460;2023-05-20T00:06:33;96958.91;;;13.55;100.00
45731;BME280;31440;48.584;13.460;2023-05-20T00:09:38;96943.38;;;13.52;100.00
45731;BME280;31440;48.584;13.460;2023-05-20T00:12:43;96946.38;;;13.63;100.00
45731;BME280;31440;48.584;13.460;2023-05-20T00:15:47;96938.81;;;13.57;100.00
45731;BME280;31440;48.584;13.460;2023-05-20T00:18:51;96941.44;;;13.57;100.00
45731;BME280;31440;48.584;13.460;2023-05-20T00:21:56;96936.00;;;13.22;100.00
45731;BME280;31440;48.584;13.460;2023-05-20T00:25:01;96929.16;;;13.20;100.00
45731;BME280;31440;48.584;13.460;2023-05-20T00:28:06;96928.88;;;13.46;100.00
45731;BME280;31440;48.584;13.460;2023-05-20T00:31:10;96924.09;;;13.56;100.00
45731;BME280;31440;48.584;13.460;2023-05-20T00:34:16;96933.59;;;13.57;100.00
45731;BME280;31440;48.584;13.460;2023-05-20T00:37:21;96934.44;;;13.57;100.00
45731;BME280;31440;48.584;13.460;2023-05-20T00:40:26;96932.59;;;13.41;100.00
45731;BME280;31440;48.584;13.460;2023-05-20T00:43:31;96928.88;;;13.46;100.00
45731;BME280;31440;48.584;13.460;2023-05-20T00:46:36;96927.63;;;13.35;100.00
45731;BME280;31440;48.584;13.460;2023-05-20T00:49:42;96923.09;;;12.99;100.00
45731;BME280;31440;48.584;13.460;2023-05-20T00:52:47;96926.84;;;13.14;100.00
45731;BME280;31440;48.584;13.460;2023-05-20T00:55:55;96924.16;;;12.95;100.00
45731;BME280;31440;48.584;13.460;2023-05-20T00:59:00;96917.41;;;12.91;100.00
45731;BME280;31440;48.584;13.460;2023-05-20T01:02:05;96916.13;;;13.00;100.00
45731;BME280;31440;48.584;13.460;2023-05-20T01:05:10;96916.97;;;13.20;100.00
45731;BME280;31440;48.584;13.460;2023-05-20T01:08:15;96916.97;;;13.20;100.00
45731;BME280;31440;48.584;13.460;2023-05-20T01:11:33;96914.28;;;13.22;100.00
45731;BME280;31440;48.584;13.460;2023-05-20T01:14:52;96905.56;;;13.23;100.00
45731;BME280;31440;48.584;13.460;2023-05-20T01:18:00;96910.56;;;13.28;100.00
45731;BME280;31440;48.584;13.460;2023-05-20T01:21:10;96904.50;;;13.27;100.00
45731;BME280;31440;48.584;13.460;2023-05-20T01:24:15;96911.50;;;13.06;100.00
45731;BME280;31440;48.584;13.460;2023-05-20T01:27:20;96906.53;;;13.20;100.00
45731;BME280;31440;48.584;13.460;2023-05-20T01:30:29;96917.63;;;13.05;100.00
45731;BME280;31440;48.584;13.460;2023-05-20T01:33:35;96915.16;;;13.02;100.00
45731;BME280;31440;48.584;13.460;2023-05-20T01:36:40;96913.56;;;13.18;100.00
45731;BME280;31440;48.584;13.460;2023-05-20T01:39:49;96910.22;;;12.96;100.00
45731;BME280;31440;48.584;13.460;2023-05-20T01:42:54;96910.56;;;13.28;100.00
45731;BME280;31440;48.584;13.460;2023-05-20T01:46:04;96912.75;;;12.98;100.00
45731;BME280;31440;48.584;13.460;2023-05-20T01:49:09;96912.97;;;12.93;100.00
45731;BME280;31440;48.584;13.460;2023-05-20T01:52:13;96904.22;;;13.14;100.00
45731;BME280;31440;48.584;13.460;2023-05-20T01:55:18;96900.38;;;13.03;100.00
45731;BME280;31440;48.584;13.460;2023-05-20T01:58:23;96905.59;;;13.03;100.00
45731;BME280;31440;48.584;13.460;2023-05-20T02:01:27;96898.63;;;12.83;100.00
45731;BME280;31440;48.584;13.460;2023-05-20T02:04:33;96902.53;;;12.52;100.00
45731;BME280;31440;48.584;13.460;2023-05-20T02:07:38;96901.09;;;12.86;100.00
45731;BME280;31440;48.584;13.460;2023-05-20T02:10:43;96903.81;;;13.03;100.00
45731;BME280;31440;48.584;13.460;2023-05-20T02:13:49;96892.22;;;13.10;100.00
45731;BME280;31440;48.584;13.460;2023-05-20T02:16:54;96894.19;;;13.05;100.00
45731;BME280;31440;48.584;13.460;2023-05-20T02:19:59;96894.38;;;13.01;100.00
45731;BME280;31440;48.584;13.460;2023-05-20T02:23:04;96896.94;;;12.82;100.00
45731;BME280;31440;48.584;13.460;2023-05-20T02:26:09;96892.56;;;13.03;100.00
45731;BME280;31440;48.584;13.460;2023-05-20T02:29:14;96889.50;;;13.13;100.00
45731;BME280;31440;48.584;13.460;2023-05-20T02:32:19;96894.00;;;12.89;100.00
45731;BME280;31440;48.584;13.460;2023-05-20T02:35:25;96886.19;;;12.89;100.00
45731;BME280;31440;48.584;13.460;2023-05-20T02:38:30;96890.91;;;12.61;100.00
45731;BME280;31440;48.584;13.460;2023-05-20T02:41:35;96889.84;;;12.85;100.00
45731;BME280;31440;48.584;13.460;2023-05-20T02:44:40;96889.53;;;12.93;100.00
45731;BME280;31440;48.584;13.460;2023-05-20T02:47:44;96888.34;;;13.19;100.00
45731;BME280;31440;48.584;13.460;2023-05-20T02:50:49;96884.84;;;13.20;100.00
45731;BME280;31440;48.584;13.460;2023-05-20T02:53:54;96886.88;;;13.13;100.00
45731;BME280;31440;48.584;13.460;2023-05-20T02:56:58;96880.38;;;13.03;100.00
45731;BME280;31440;48.584;13.460;2023-05-20T03:00:04;96884.56;;;12.87;100.00
45731;BME280;31440;48.584;13.460;2023-05-20T03:03:09;96876.13;;;13.01;100.00
45731;BME280;31440;48.584;13.460;2023-05-20T03:06:14;96871.09;;;13.35;100.00
45731;BME280;31440;48.584;13.460;2023-05-20T03:09:19;96887.34;;;13.03;100.00
45731;BME280;31440;48.584;13.460;2023-05-20T03:12:24;96879.47;;;13.04;100.00
45731;BME280;31440;48.584;13.460;2023-05-20T03:15:29;96882.91;;;13.05;100.00
45731;BME280;31440;48.584;13.460;2023-05-20T03:18:34;96883.50;;;13.11;100.00
45731;BME280;31440;48.584;13.460;2023-05-20T03:21:39;96888.44;;;12.78;100.00
45731;BME280;31440;48.584;13.460;2023-05-20T03:24:45;96870.09;;;12.80;100.00
45731;BME280;31440;48.584;13.460;2023-05-20T03:27:50;96881.94;;;13.07;100.00
45731;BME280;31440;48.584;13.460;2023-05-20T03:30:55;96879.72;;;12.98;100.00
45731;BME280;31440;48.584;13.460;2023-05-20T03:34:00;96850.00;;;13.02;100.00
45731;BME280;31440;48.584;13.460;2023-05-20T03:37:04;96873.34;;;12.85;100.00
45731;BME280;31440;48.584;13.460;2023-05-20T03:40:09;96875.19;;;12.83;100.00
45731;BME280;31440;48.584;13.460;2023-05-20T03:43:15;96866.69;;;12.98;100.00
45731;BME280;31440;48.584;13.460;2023-05-20T03:46:20;96880.06;;;13.11;100.00
45731;BME280;31440;48.584;13.460;2023-05-20T03:49:25;96885.22;;;12.92;100.00
45731;BME280;31440;48.584;13.460;2023-05-20T03:52:31;96876.09;;;13.21;100.00
45731;BME280;31440;48.584;13.460;2023-05-20T03:55:36;96885.34;;;13.28;100.00
45731;BME280;31440;48.584;13.460;2023-05-20T03:58:43;96877.91;;;13.00;100.00
45731;BME280;31440;48.584;13.460;2023-05-20T04:01:48;96879.41;;;13.06;100.00
45731;BME280;31440;48.584;13.460;2023-05-20T04:04:53;96888.09;;;13.25;100.00
45731;BME280;31440;48.584;13.460;2023-05-20T04:08:01;96880.78;;;12.94;100.00
45731;BME280;31440;48.584;13.460;2023-05-20T04:11:07;96877.16;;;13.17;100.00
45731;BME280;31440;48.584;13.460;2023-05-20T04:14:12;96858.34;;;13.49;100.00
45731;BME280;31440;48.584;13.460;2023-05-20T04:17:17;96874.19;;;13.45;100.00
45731;BME280;31440;48.584;13.460;2023-05-20T04:20:22;96876.59;;;13.49;100.00
45731;BME280;31440;48.584;13.460;2023-05-20T04:23:31;96881.31;;;13.60;100.00
45731;BME280;31440;48.584;13.460;2023-05-20T04:26:37;96871.16;;;13.54;100.00
45731;BME280;31440;48.584;13.460;2023-05-20T04:29:42;96867.69;;;13.72;100.00
45731;BME280;31440;48.584;13.460;2023-05-20T04:32:51;96858.84;;;13.37;100.00
45731;BME280;31440;48.584;13.460;2023-05-20T04:35:56;96870.28;;;13.72;100.00
45731;BME280;31440;48.584;13.460;2023-05-20T04:39:02;96865.66;;;13.79;100.00
45731;BME280;31440;48.584;13.460;2023-05-20T04:42:09;96865.50;;;14.18;100.00
45731;BME280;31440;48.584;13.460;2023-05-20T04:45:14;96866.78;;;14.09;100.00
45731;BME280;31440;48.584;13.460;2023-05-20T04:48:21;96858.94;;;14.09;100.00
45731;BME280;31440;48.584;13.460;2023-05-20T04:51:27;96875.25;;;14.32;100.00
45731;BME280;31440;48.584;13.460;2023-05-20T04:54:33;96861.75;;;14.41;100.00
45731;BME280;31440;48.584;13.460;2023-05-20T04:57:39;96868.88;;;14.20;100.00
45731;BME280;31440;48.584;13.460;2023-05-20T05:00:46;96869.47;;;14.61;100.00
45731;BME280;31440;48.584;13.460;2023-05-20T05:03:51;96851.94;;;14.80;100.00
45731;BME280;31440;48.584;13.460;2023-05-20T05:06:57;96867.88;;;14.58;100.00
45731;BME280;31440;48.584;13.460;2023-05-20T05:10:03;96863.88;;;15.02;100.00
45731;BME280;31440;48.584;13.460;2023-05-20T05:13:09;96873.03;;;15.10;100.00
45731;BME280;31440;48.584;13.460;2023-05-20T05:16:14;96869.69;;;15.24;100.00
45731;BME280;31440;48.584;13.460;2023-05-20T05:19:19;96864.13;;;14.97;100.00
45731;BME280;31440;48.584;13.460;2023-05-20T05:22:24;96869.47;;;15.44;99.91
45731;BME280;31440;48.584;13.460;2023-05-20T05:25:30;96866.75;;;15.30;100.00
45731;BME280;31440;48.584;13.460;2023-05-20T05:28:36;96874.53;;;15.47;100.00
45731;BME280;31440;48.584;13.460;2023-05-20T05:31:42;96869.47;;;15.60;100.00
45731;BME280;31440;48.584;13.460;2023-05-20T05:34:47;96870.03;;;15.82;100.00
45731;BME280;31440;48.584;13.460;2023-05-20T05:37:51;96872.75;;;15.81;99.75
45731;BME280;31440;48.584;13.460;2023-05-20T05:40:56;96868.00;;;15.72;100.00
45731;BME280;31440;48.584;13.460;2023-05-20T05:44:01;96864.59;;;16.17;100.00
45731;BME280;31440;48.584;13.460;2023-05-20T05:47:06;96863.06;;;16.13;100.00
45731;BME280;31440;48.584;13.460;2023-05-20T05:50:13;96871.41;;;16.35;97.98
45731;BME280;31440;48.584;13.460;2023-05-20T05:53:19;96871.25;;;16.22;95.83
45731;BME280;31440;48.584;13.460;2023-05-20T05:56:25;96869.00;;;16.46;95.45
45731;BME280;31440;48.584;13.460;2023-05-20T05:59:30;96857.69;;;16.76;93.73
45731;BME280;31440;48.584;13.460;2023-05-20T06:02:34;96867.06;;;16.94;94.46
45731;BME280;31440;48.584;13.460;2023-05-20T06:05:44;96860.34;;;17.18;92.28
45731;BME280;31440;48.584;13.460;2023-05-20T06:08:49;96869.91;;;17.48;90.40
45731;BME280;31440;48.584;13.460;2023-05-20T06:11:54;96863.63;;;17.79;87.91
45731;BME280;31440;48.584;13.460;2023-05-20T06:14:59;96869.31;;;17.85;92.34
45731;BME280;31440;48.584;13.460;2023-05-20T06:18:04;96870.19;;;18.13;85.36
45731;BME280;31440;48.584;13.460;2023-05-20T06:21:10;96864.59;;;18.31;82.36
45731;BME280;31440;48.584;13.460;2023-05-20T06:24:15;96866.78;;;17.98;85.57
45731;BME280;31440;48.584;13.460;2023-05-20T06:27:20;96873.84;;;18.37;83.06
45731;BME280;31440;48.584;13.460;2023-05-20T06:30:25;96867.56;;;18.13;80.33
45731;BME280;31440;48.584;13.460;2023-05-20T06:33:30;96859.03;;;18.63;83.36
45731;BME280;31440;48.584;13.460;2023-05-20T06:36:38;96847.16;;;18.70;83.18
45731;BME280;31440;48.584;13.460;2023-05-20T06:39:45;96847.16;;;18.83;78.97
45731;BME280;31440;48.584;13.460;2023-05-20T06:42:51;96850.03;;;19.05;79.22
45731;BME280;31440;48.584;13.460;2023-05-20T06:46:17;96837.38;;;19.35;78.04
45731;BME280;31440;48.584;13.460;2023-05-20T06:49:27;96854.84;;;18.98;74.48
45731;BME280;31440;48.584;13.460;2023-05-20T06:52:32;96852.41;;;19.08;74.92
45731;BME280;31440;48.584;13.460;2023-05-20T06:55:37;96848.09;;;19.45;76.96
45731;BME280;31440;48.584;13.460;2023-05-20T06:58:42;96844.34;;;19.86;75.09
45731;BME280;31440;48.584;13.460;2023-05-20T07:01:47;96848.53;;;20.48;70.33
45731;BME280;31440;48.584;13.460;2023-05-20T07:04:53;96840.13;;;19.83;74.09
45731;BME280;31440;48.584;13.460;2023-05-20T07:07:57;96845.81;;;20.13;69.78
45731;BME280;31440;48.584;13.460;2023-05-20T07:11:03;96836.31;;;20.24;68.95
45731;BME280;31440;48.584;13.460;2023-05-20T07:14:08;96831.06;;;20.11;69.52
45731;BME280;31440;48.584;13.460;2023-05-20T07:17:13;96828.28;;;20.25;67.58
45731;BME280;31440;48.584;13.460;2023-05-20T07:20:19;96832.13;;;19.85;73.71
45731;BME280;31440;48.584;13.460;2023-05-20T07:23:24;96834.44;;;20.13;70.41
45731;BME280;31440;48.584;13.460;2023-05-20T07:26:31;96829.41;;;20.10;70.17
45731;BME280;31440;48.584;13.460;2023-05-20T07:29:39;96840.16;;;20.07;69.83
45731;BME280;31440;48.584;13.460;2023-05-20T07:32:44;96837.19;;;20.11;70.31
45731;BME280;31440;48.584;13.460;2023-05-20T07:35:49;96841.28;;;20.74;67.26
45731;BME280;31440;48.584;13.460;2023-05-20T07:38:54;96833.28;;;20.41;67.30
45731;BME280;31440;48.584;13.460;2023-05-20T07:42:11;96828.69;;;20.19;68.33
45731;BME280;31440;48.584;13.460;2023-05-20T07:45:19;96834.25;;;20.03;67.92
45731;BME280;31440;48.584;13.460;2023-05-20T07:48:24;96842.00;;;20.18;69.17
45731;BME280;31440;48.584;13.460;2023-05-20T07:51:30;96824.06;;;20.46;65.22
45731;BME280;31440;48.584;13.460;2023-05-20T07:54:35;96836.94;;;20.14;69.44
45731;BME280;31440;48.584;13.460;2023-05-20T07:57:40;96824.31;;;20.20;64.74
45731;BME280;31440;48.584;13.460;2023-05-20T08:00:48;96825.22;;;20.66;64.82
45731;BME280;31440;48.584;13.460;2023-05-20T08:03:53;96828.22;;;20.38;64.08
45731;BME280;31440;48.584;13.460;2023-05-20T08:07:00;96830.00;;;20.72;65.47
45731;BME280;31440;48.584;13.460;2023-05-20T08:10:22;96837.97;;;20.95;65.70
45731;BME280;31440;48.584;13.460;2023-05-20T08:13:27;96832.03;;;21.82;59.56
45731;BME280;31440;48.584;13.460;2023-05-20T08:16:32;96826.72;;;22.89;61.36
45731;BME280;31440;48.584;13.460;2023-05-20T08:19:37;96824.53;;;22.41;61.11
45731;BME280;31440;48.584;13.460;2023-05-20T08:22:42;96823.06;;;22.80;57.42
45731;BME280;31440;48.584;13.460;2023-05-20T08:25:48;96822.19;;;22.48;57.53
45731;BME280;31440;48.584;13.460;2023-05-20T08:28:53;96809.28;;;22.86;58.80
45731;BME280;31440;48.584;13.460;2023-05-20T08:31:59;96820.47;;;22.05;57.14
45731;BME280;31440;48.584;13.460;2023-05-20T08:35:06;96824.09;;;21.82;57.66
45731;BME280;31440;48.584;13.460;2023-05-20T08:38:11;96819.31;;;21.65;55.47
45731;BME280;31440;48.584;13.460;2023-05-20T08:41:15;96819.06;;;21.23;58.01
45731;BME280;31440;48.584;13.460;2023-05-20T08:44:23;96807.13;;;22.39;56.40
45731;BME280;31440;48.584;13.460;2023-05-20T08:47:29;96816.72;;;22.93;55.56
45731;BME280;31440;48.584;13.460;2023-05-20T08:50:34;96806.03;;;23.95;54.62
45731;BME280;31440;48.584;13.460;2023-05-20T08:53:38;96807.88;;;23.64;54.25
45731;BME280;31440;48.584;13.460;2023-05-20T08:56:43;96797.66;;;24.09;53.31
45731;BME280;31440;48.584;13.460;2023-05-20T08:59:49;96801.78;;;23.83;52.80
45731;BME280;31440;48.584;13.460;2023-05-20T09:02:55;96796.63;;;23.72;49.87
45731;BME280;31440;48.584;13.460;2023-05-20T09:06:04;96787.97;;;23.09;49.25
45731;BME280;31440;48.584;13.460;2023-05-20T09:09:13;96794.97;;;23.19;51.99
45731;BME280;31440;48.584;13.460;2023-05-20T09:12:19;96804.66;;;23.00;50.93
45731;BME280;31440;48.584;13.460;2023-05-20T09:15:24;96809.81;;;22.48;49.70
45731;BME280;31440;48.584;13.460;2023-05-20T09:18:29;96799.25;;;23.32;48.10
45731;BME280;31440;48.584;13.460;2023-05-20T09:21:35;96797.53;;;24.49;47.89
45731;BME280;31440;48.584;13.460;2023-05-20T09:24:41;96794.19;;;24.47;49.05
45731;BME280;31440;48.584;13.460;2023-05-20T09:27:45;96797.00;;;24.55;46.92
45731;BME280;31440;48.584;13.460;2023-05-20T09:30:56;96793.75;;;24.90;46.42
45731;BME280;31440;48.584;13.460;2023-05-20T09:34:02;96792.81;;;25.28;45.10
45731;BME280;31440;48.584;13.460;2023-05-20T09:37:07;96798.84;;;25.31;44.47
45731;BME280;31440;48.584;13.460;2023-05-20T09:40:14;96800.06;;;25.36;43.47
45731;BME280;31440;48.584;13.460;2023-05-20T09:43:19;96795.84;;;25.43;42.18
45731;BME280;31440;48.584;13.460;2023-05-20T09:46:23;96793.38;;;26.14;43.05
45731;BME280;31440;48.584;13.460;2023-05-20T09:49:29;96792.66;;;25.67;43.06
45731;BME280;31440;48.584;13.460;2023-05-20T09:52:37;96792.50;;;25.96;41.59
45731;BME280;31440;48.584;13.460;2023-05-20T09:55:42;96796.56;;;26.00;44.02
45731;BME280;31440;48.584;13.460;2023-05-20T09:58:48;96780.06;;;26.50;42.27
45731;BME280;31440;48.584;13.460;2023-05-20T10:01:53;96784.22;;;25.72;42.72
45731;BME280;31440;48.584;13.460;2023-05-20T10:05:00;96781.00;;;26.41;43.81
45731;BME280;31440;48.584;13.460;2023-05-20T10:08:39;96784.28;;;27.56;43.21
45731;BME280;31440;48.584;13.460;2023-05-20T10:11:55;96788.78;;;26.24;42.99
45731;BME280;31440;48.584;13.460;2023-05-20T10:18:50;96785.50;;;26.58;41.58
45731;BME280;31440;48.584;13.460;2023-05-20T10:22:03;96786.06;;;25.89;40.91
45731;BME280;31440;48.584;13.460;2023-05-20T10:25:11;96789.66;;;27.04;41.61
45731;BME280;31440;48.584;13.460;2023-05-20T10:28:34;96791.72;;;27.18;40.91
45731;BME280;31440;48.584;13.460;2023-05-20T10:31:44;96793.03;;;27.40;38.44
45731;BME280;31440;48.584;13.460;2023-05-20T10:34:50;96785.78;;;26.98;40.47
45731;BME280;31440;48.584;13.460;2023-05-20T10:38:07;96777.97;;;27.99;39.08
45731;BME280;31440;48.584;13.460;2023-05-20T10:41:19;96765.91;;;27.45;40.23
45731;BME280;31440;48.584;13.460;2023-05-20T10:44:24;96773.06;;;28.61;37.17
45731;BME280;31440;48.584;13.460;2023-05-20T10:47:29;96767.50;;;27.63;40.81
45731;BME280;31440;48.584;13.460;2023-05-20T10:50:35;96761.47;;;26.93;37.34
45731;BME280;31440;48.584;13.460;2023-05-20T10:53:44;96764.31;;;27.00;37.90
45731;BME280;31440;48.584;13.460;2023-05-20T10:56:53;96771.88;;;27.39;36.54
45731;BME280;31440;48.584;13.460;2023-05-20T10:59:57;96770.09;;;26.52;39.16
45731;BME280;31440;48.584;13.460;2023-05-20T11:03:04;96763.09;;;26.69;38.73
45731;BME280;31440;48.584;13.460;2023-05-20T11:06:15;96771.50;;;27.25;38.22
45731;BME280;31440;48.584;13.460;2023-05-20T11:09:22;96747.75;;;27.40;37.65
45731;BME280;31440;48.584;13.460;2023-05-20T11:12:26;96741.72;;;27.30;38.95
45731;BME280;31440;48.584;13.460;2023-05-20T11:15:32;96756.31;;;28.10;37.87
45731;BME280;31440;48.584;13.460;2023-05-20T11:18:37;96746.19;;;28.62;36.63
45731;BME280;31440;48.584;13.460;2023-05-20T11:21:43;96751.78;;;27.52;37.23
45731;BME280;31440;48.584;13.460;2023-05-20T11:24:48;96741.47;;;27.57;35.99
45731;BME280;31440;48.584;13.460;2023-05-20T11:27:53;96744.06;;;27.07;36.19
45731;BME280;31440;48.584;13.460;2023-05-20T11:30:58;96733.00;;;26.94;37.25
45731;BME280;31440;48.584;13.460;2023-05-20T11:34:03;96733.91;;;26.59;38.82
45731;BME280;31440;48.584;13.460;2023-05-20T11:37:08;96736.34;;;26.52;38.52
45731;BME280;31440;48.584;13.460;2023-05-20T11:40:13;96746.56;;;26.21;38.48
45731;BME280;31440;48.584;13.460;2023-05-20T11:43:18;96736.56;;;26.59;38.57
45731;BME280;31440;48.584;13.460;2023-05-20T11:46:23;96734.34;;;26.72;38.19
45731;BME280;31440;48.584;13.460;2023-05-20T11:49:28;96737.47;;;26.68;38.28
45731;BME280;31440;48.584;13.460;2023-05-20T11:52:34;96733.13;;;26.67;39.97
45731;BME280;31440;48.584;13.460;2023-05-20T11:55:53;96730.94;;;26.62;37.59
45731;BME280;31440;48.584;13.460;2023-05-20T11:58:59;96725.91;;;26.77;39.85
45731;BME280;31440;48.584;13.460;2023-05-20T12:02:04;96739.00;;;26.70;38.48
45731;BME280;31440;48.584;13.460;2023-05-20T12:05:09;96731.25;;;26.23;39.01
45731;BME280;31440;48.584;13.460;2023-05-20T12:08:14;96733.50;;;26.97;40.01
45731;BME280;31440;48.584;13.460;2023-05-20T12:11:19;96731.31;;;26.49;39.77
45731;BME280;31440;48.584;13.460;2023-05-20T12:14:25;96730.94;;;26.62;38.95
45731;BME280;31440;48.584;13.460;2023-05-20T12:17:33;96723.13;;;27.46;37.96
45731;BME280;31440;48.584;13.460;2023-05-20T12:20:38;96718.72;;;27.29;39.37
45731;BME280;31440;48.584;13.460;2023-05-20T12:23:43;96722.59;;;27.43;38.29
45731;BME280;31440;48.584;13.460;2023-05-20T12:26:47;96719.78;;;27.18;37.19
45731;BME280;31440;48.584;13.460;2023-05-20T12:29:52;96719.09;;;27.50;37.92
45731;BME280;31440;48.584;13.460;2023-05-20T12:32:56;96714.28;;;28.12;37.11
45731;BME280;31440;48.584;13.460;2023-05-20T12:36:01;96720.25;;;27.82;36.36
45731;BME280;31440;48.584;13.460;2023-05-20T12:39:06;96724.97;;;28.28;37.07
45731;BME280;31440;48.584;13.460;2023-05-20T12:42:10;96708.44;;;28.82;36.03
45731;BME280;31440;48.584;13.460;2023-05-20T12:45:15;96705.09;;;30.05;37.19
45731;BME280;31440;48.584;13.460;2023-05-20T12:48:20;96708.81;;;31.17;33.71
45731;BME280;31440;48.584;13.460;2023-05-20T12:51:24;96699.31;;;30.62;33.24
45731;BME280;31440;48.584;13.460;2023-05-20T12:54:29;96695.88;;;30.07;31.93
45731;BME280;31440;48.584;13.460;2023-05-20T12:57:34;96685.34;;;31.04;31.27
45731;BME280;31440;48.584;13.460;2023-05-20T13:00:38;96683.22;;;30.01;30.92
45731;BME280;31440;48.584;13.460;2023-05-20T13:03:43;96695.16;;;29.91;31.94
45731;BME280;31440;48.584;13.460;2023-05-20T13:06:48;96685.91;;;28.76;31.56
45731;BME280;31440;48.584;13.460;2023-05-20T13:09:52;96687.72;;;29.08;32.97
45731;BME280;31440;48.584;13.460;2023-05-20T13:12:57;96680.38;;;29.80;33.31
45731;BME280;31440;48.584;13.460;2023-05-20T13:16:03;96683.09;;;29.95;33.09
45731;BME280;31440;48.584;13.460;2023-05-20T13:19:07;96691.84;;;29.58;33.39
45731;BME280;31440;48.584;13.460;2023-05-20T13:22:12;96690.31;;;29.24;33.50
45731;BME280;31440;48.584;13.460;2023-05-20T13:25:17;96681.38;;;28.85;33.42
45731;BME280;31440;48.584;13.460;2023-05-20T13:28:21;96678.03;;;28.99;33.75
45731;BME280;31440;48.584;13.460;2023-05-20T13:31:26;96671.66;;;29.55;32.50
45731;BME280;31440;48.584;13.460;2023-05-20T13:34:31;96663.28;;;30.04;33.28
45731;BME280;31440;48.584;13.460;2023-05-20T13:37:35;96670.28;;;29.51;33.16
45731;BME280;31440;48.584;13.460;2023-05-20T13:40:40;96663.22;;;29.66;32.05
45731;BME280;31440;48.584;13.460;2023-05-20T13:43:45;96660.34;;;30.22;31.81
45731;BME280;31440;48.584;13.460;2023-05-20T13:46:50;96669.13;;;29.15;33.07
45731;BME280;31440;48.584;13.460;2023-05-20T13:49:54;96659.53;;;28.81;31.89
45731;BME280;31440;48.584;13.460;2023-05-20T13:52:59;96637.72;;;27.88;32.63
45731;BME280;31440;48.584;13.460;2023-05-20T13:56:04;96656.94;;;28.00;34.41
45731;BME280;31440;48.584;13.460;2023-05-20T13:59:09;96651.63;;;27.50;34.46
45731;BME280;31440;48.584;13.460;2023-05-20T14:02:13;96661.41;;;27.25;34.85
45731;BME280;31440;48.584;13.460;2023-05-20T14:05:18;96659.41;;;26.93;35.72
45731;BME280;31440;48.584;13.460;2023-05-20T14:08:23;96650.09;;;26.97;36.26
45731;BME280;31440;48.584;13.460;2023-05-20T14:11:28;96648.75;;;26.41;37.22
45731;BME280;31440;48.584;13.460;2023-05-20T14:14:32;96647.38;;;26.11;37.61
45731;BME280;31440;48.584;13.460;2023-05-20T14:17:37;96650.41;;;26.42;38.92
45731;BME280;31440;48.584;13.460;2023-05-20T14:20:42;96642.75;;;26.91;37.25
45731;BME280;31440;48.584;13.460;2023-05-20T14:23:47;96643.91;;;27.22;37.57
45731;BME280;31440;48.584;13.460;2023-05-20T14:26:52;96632.41;;;28.05;36.11
45731;BME280;31440;48.584;13.460;2023-05-20T14:29:57;96639.75;;;28.35;36.30
45731;BME280;31440;48.584;13.460;2023-05-20T14:33:02;96627.03;;;29.17;34.55
45731;BME280;31440;48.584;13.460;2023-05-20T14:36:06;96620.28;;;28.90;35.16
45731;BME280;31440;48.584;13.460;2023-05-20T14:39:11;96627.19;;;29.23;35.04
45731;BME280;31440;48.584;13.460;2023-05-20T14:42:16;96621.84;;;30.00;35.46
45731;BME280;31440;48.584;13.460;2023-05-20T14:45:21;96620.00;;;29.55;33.32
45731;BME280;31440;48.584;13.460;2023-05-20T14:48:26;96629.59;;;29.02;36.31
45731;BME280;31440;48.584;13.460;2023-05-20T14:51:31;96628.09;;;28.99;35.65
45731;BME280;31440;48.584;13.460;2023-05-20T14:54:35;96634.31;;;28.76;34.87
45731;BME280;31440;48.584;13.460;2023-05-20T14:57:40;96615.72;;;28.02;34.03
45731;BME280;31440;48.584;13.460;2023-05-20T15:00:45;96620.03;;;27.79;34.74
45731;BME280;31440;48.584;13.460;2023-05-20T15:03:50;96621.34;;;27.59;35.23
45731;BME280;31440;48.584;13.460;2023-05-20T15:06:55;96623.91;;;28.42;34.55
45731;BME280;31440;48.584;13.460;2023-05-20T15:10:01;96615.56;;;27.80;34.58
45731;BME280;31440;48.584;13.460;2023-05-20T15:13:05;96619.16;;;27.46;37.05
45731;BME280;31440;48.584;13.460;2023-05-20T15:16:11;96616.34;;;27.06;36.00
45731;BME280;31440;48.584;13.460;2023-05-20T15:19:16;96614.75;;;27.21;36.81
45731;BME280;31440;48.584;13.460;2023-05-20T15:22:20;96618.66;;;27.43;37.95
45731;BME280;31440;48.584;13.460;2023-05-20T15:25:25;96617.75;;;28.17;36.58
45731;BME280;31440;48.584;13.460;2023-05-20T15:28:30;96614.47;;;28.78;34.33
45731;BME280;31440;48.584;13.460;2023-05-20T15:31:34;96617.91;;;27.91;35.94
45731;BME280;31440;48.584;13.460;2023-05-20T15:34:39;96610.00;;;28.38;35.63
45731;BME280;31440;48.584;13.460;2023-05-20T15:37:44;96612.59;;;27.83;35.78
45731;BME280;31440;48.584;13.460;2023-05-20T15:40:49;96605.06;;;27.94;36.75
45731;BME280;31440;48.584;13.460;2023-05-20T15:43:54;96608.88;;;28.24;35.55
45731;BME280;31440;48.584;13.460;2023-05-20T15:46:59;96600.91;;;27.84;37.96
45731;BME280;31440;48.584;13.460;2023-05-20T15:50:04;96607.59;;;27.21;37.63
45731;BME280;31440;48.584;13.460;2023-05-20T15:53:13;96600.19;;;27.57;37.28
45731;BME280;31440;48.584;13.460;2023-05-20T15:56:18;96613.72;;;28.29;37.55
45731;BME280;31440;48.584;13.460;2023-05-20T15:59:23;96611.16;;;28.68;37.20
45731;BME280;31440;48.584;13.460;2023-05-20T16:02:27;96599.81;;;27.36;38.96
45731;BME280;31440;48.584;13.460;2023-05-20T16:05:35;96604.69;;;27.07;37.75
45731;BME280;31440;48.584;13.460;2023-05-20T16:08:40;96601.44;;;27.21;38.24